Hardin, MT

4:00 PM MDT on September 21, 2014 (GMT -0600)
Custer | Change Station
CLOSE
Current Station
Personal Weather Station
Location: Waco, MT
Elevation: 2785 ft
Nearby Weather Stations

Elev 2785 ft 46.07 °N, 107.72 °W | Updated 7 minutes ago

Clear
Clear
79.8 °F
Feels Like 79 °F
N
7.0
Wind Variable Wind from ESE
Gusts 11.0 mph

Today
High -- | Low -- °F
--% Chance of Precip.
Yesterday
High -- | Low -- °F
Precip. -- in
6:56 AM 7:09 PM
Waning Crescent, 5% visible
Pressure 30.09 in
Visibility 10.0 miles
Clouds Few 20000 ft
Scattered Clouds 25000 ft
Heat Index 79 °F
Dew Point 45 °F
Humidity 29%
Rainfall 0.00 in
Snow Depth 0 in , 0 in , 0 in
UV 3 out of 12
Pollen 5.00 out of 12
Air Quality Not available.
Flu Activity Not available.
METAR KBIL 212153Z 09012KT 10SM FEW200 SCT250 26/05 A3015 RMK AO2 SLP189 T02560050

More Conditions Fewer Conditions

Pressure 30.09 in
Visibility 10.0 miles
Clouds Few 20000 ft
Scattered Clouds 25000 ft
Heat Index 79 °F
Dew Point 45 °F
Humidity 29%
Rainfall 0.00 in
Snow Depth 0 in , 0 in , 0 in
UV 3 out of 12
Pollen 5.00 out of 12
Air Quality Not available.
Flu Activity Not available.
METAR KBIL 212153Z 09012KT 10SM FEW200 SCT250 26/05 A3015 RMK AO2 SLP189 T02560050

More Conditions Fewer Conditions

10-Day Weather Forecast

Almanac

Astronomy

Sep. 21, 2014 Rise Set
Actual Time 6:56 AM MDT 7:09 PM MDT
Civil Twilight 6:26 AM MDT 7:39 PM MDT
Nautical Twilight 5:51 AM MDT 8:14 PM MDT
Astronomical Twilight 5:15 AM MDT 8:50 PM MDT
Moon 4:26 AM MDT 5:51 PM MDT
Length of Visible Light 13h 12m
Length of Day
12h 13m
Tomorrow will be 3m 12s shorter.
Waning Crescent, 5% of the Moon is Illuminated
Today
Waning Crescent
Sep 24
New
Oct 1
First Quarter
Oct 8
Full
Oct 15
Last Quarter

Today's Extremes

State Highs State Lows

Community

WunderPhotos

Upload Photos

1,755,269 photos uploaded!

Nearby

Snow Depth

Station Depth Elevation
Combination 0 in 5600 ft
Black Bear 0 in 8150 ft
Short Creek 0 in 7000 ft
Cole Creek 0 in 7850 ft
Stahl Peak 0 in 6030 ft

Earthquake Activity

City Distance Mag. Time & Date
No recent earthquake activity has been reported nearby.
Minimum magnitude displayed is 2.5.

Coastal Water Temperatures

Place Temperature
No Stations Reporting

Nearby Weather Stations